Las Cruces International Airport
KLRU : now visible

Aeroporto :











RITROVATECI SU...

 
LOGIN :

Iscrizione | Disclaimer

   EN    FR    IT 

 









Sommario :    VFR   VFR Marginale   IFR   IFR Intensivo   IFR Molto Intensivo
Visibilità : 
Base nubi : 
>= 8 km
>= 3000ft
5 / 8 km
1000 / 3000 ft
1500m / 5 km
500 / 1000 ft
800 / 1500m
200 / 500 ft
< 800m
< 200 ft
Simboli :   Temporali  Nebbia  Neve Forte  Precipitazioni Forti  Vento > 20 kt






- Altitudine del aeroporto : 4456 ft
- Codice IATA : LRU


KLRU - Las Cruces International

ULTIMO METAR :
  • 151515Z AUTO 27005KT 10SM CLR 10/04 A2988 RMK AO2 T01040036

METARs OBSOLETI :
  • 151455Z AUTO 25006KT 10SM CLR 09/04 A2988 RMK AO2 T00890036
  • 151435Z AUTO 24007KT 10SM CLR 07/03 A2987 RMK AO2 T00700030
  • 151415Z AUTO 24008KT 10SM CLR 05/03 A2987 RMK AO2 T00520025
  • 151355Z AUTO 25008KT 10SM CLR 05/03 A2986 RMK AO2 T00520025
  • 151335Z AUTO 24006KT 10SM CLR 06/03 A2986 RMK AO2 T00550025
  • 151315Z AUTO 24006KT 10SM CLR 06/03 A2986 RMK AO2 T00570025
  • 151255Z AUTO 24007KT 10SM CLR 06/03 A2985 RMK AO2 T00620027
  • 151235Z AUTO 27008KT 10SM CLR 06/03 A2984 RMK AO2 T00590025

TAF KLRU
Valido dal 15 a 12 ore il 16 a 12 ore UTC


151126Z 1512/1612 24008G18KT P6SM SKC
FM151900 25023G37KT P6SM SCT250
FM160000 27014G20KT P6SM SCT250
FM160800 30012KT P6SM FEW250



MetMap, La meteo Aeronautica in un colpo d'occhio ! - Copyright ORBIFLY Dicembre 2007 - Disclaimer

ORBIFLY MET'MAP TEAM :

Programmazione e sviluppo : Alexandra Zaïnal
Concezione : Baudouin d'Aumeries
Aiuto per la programmazione : Marc-Olivier Méhu
Supporto tecnico e logistico : Manuel Goepfert
Aiuto per la traduzione : Arnaldo La Scala

Contatto : metmap@orbifly.com




FONTI E CREDITI :

   NOAA       Earth
Advisory